createdAt,value
2018-07-03T00:01:24.443Z,11.50
2018-07-03T00:03:52.648Z,11.40
2018-07-03T00:06:20.908Z,11.30
2018-07-03T00:08:49.107Z,11.30
2018-07-03T00:11:17.440Z,11.20
2018-07-03T00:13:45.666Z,11.10
2018-07-03T00:16:19.235Z,11.10
2018-07-03T00:18:47.441Z,11.00
2018-07-03T00:21:15.651Z,11.00
2018-07-03T00:23:44.048Z,10.90
2018-07-03T00:26:12.312Z,10.90
2018-07-03T00:28:40.607Z,10.80
2018-07-03T00:31:09.346Z,10.80
2018-07-03T00:33:37.546Z,10.80
2018-07-03T00:36:05.840Z,10.80
2018-07-03T00:38:34.040Z,10.70
2018-07-03T00:41:02.247Z,10.70
2018-07-03T00:43:30.454Z,10.60
2018-07-03T00:45:58.695Z,10.60
2018-07-03T00:48:26.943Z,10.60
2018-07-03T00:50:55.217Z,10.50
2018-07-03T00:53:23.431Z,10.50
2018-07-03T00:55:51.672Z,10.50
2018-07-03T01:00:47.867Z,10.40
2018-07-03T01:03:16.092Z,10.40
2018-07-03T01:05:44.306Z,10.40
2018-07-03T01:08:12.531Z,10.50
2018-07-03T01:10:41.419Z,10.50
2018-07-03T01:13:09.652Z,10.40
2018-07-03T01:15:37.877Z,10.40
2018-07-03T01:18:07.124Z,10.30
2018-07-03T01:20:35.335Z,10.30
2018-07-03T01:23:03.608Z,10.20
2018-07-03T01:25:31.813Z,10.20
2018-07-03T01:28:00.209Z,10.10
2018-07-03T01:30:28.408Z,10.10
2018-07-03T01:32:56.643Z,10.10
2018-07-03T01:35:24.864Z,10.00
2018-07-03T01:37:53.087Z,10.00
2018-07-03T01:40:21.346Z,10.00
2018-07-03T01:42:49.549Z,10.00
2018-07-03T01:45:17.792Z,9.90
2018-07-03T01:47:45.992Z,9.90
2018-07-03T01:50:14.238Z,9.90
2018-07-03T01:52:42.464Z,9.80
2018-07-03T01:55:10.672Z,9.80
2018-07-03T01:57:38.894Z,9.80
2018-07-03T02:00:07.136Z,9.70
2018-07-03T02:02:35.359Z,9.70
2018-07-03T02:05:03.568Z,9.70
2018-07-03T02:07:31.832Z,9.60
2018-07-03T02:10:00.105Z,9.60
2018-07-03T02:12:28.344Z,9.60
2018-07-03T02:14:56.560Z,9.60
2018-07-03T02:17:24.809Z,9.60
2018-07-03T02:19:53.037Z,9.60
2018-07-03T02:22:21.351Z,9.60
2018-07-03T02:24:49.591Z,9.60
2018-07-03T02:27:17.816Z,9.60
2018-07-03T02:29:46.621Z,9.50
2018-07-03T02:32:14.850Z,9.50
2018-07-03T02:34:43.072Z,9.40
2018-07-03T02:37:11.277Z,9.40
2018-07-03T02:39:39.553Z,9.30
2018-07-03T02:42:08.776Z,9.30
2018-07-03T02:44:37.013Z,9.30
2018-07-03T02:47:13.109Z,9.20
2018-07-03T02:49:41.348Z,9.20
2018-07-03T02:52:09.577Z,9.20
2018-07-03T02:54:37.826Z,9.20
2018-07-03T02:57:06.060Z,9.10
2018-07-03T02:59:34.288Z,9.10
2018-07-03T03:02:02.521Z,9.10
2018-07-03T03:04:30.782Z,9.10
2018-07-03T03:06:59.051Z,9.10
2018-07-03T03:09:27.349Z,9.10
2018-07-03T03:11:55.769Z,9.10
2018-07-03T03:14:23.997Z,9.10
2018-07-03T03:16:52.421Z,9.10
2018-07-03T03:19:20.690Z,9.10
2018-07-03T03:21:48.896Z,9.20
2018-07-03T03:24:17.153Z,9.10
2018-07-03T03:26:45.377Z,9.10
2018-07-03T03:29:13.601Z,9.20
2018-07-03T03:31:41.832Z,9.10
2018-07-03T03:34:10.068Z,9.10
2018-07-03T03:36:38.300Z,9.20
2018-07-03T03:39:07.301Z,9.20
2018-07-03T03:41:35.504Z,9.20
2018-07-03T03:44:03.726Z,9.20
2018-07-03T03:46:31.981Z,9.20
2018-07-03T03:49:00.198Z,9.20
2018-07-03T03:51:28.427Z,9.30
2018-07-03T03:53:56.636Z,9.30
2018-07-03T03:56:24.869Z,9.30
2018-07-03T03:58:53.104Z,9.30
2018-07-03T04:01:21.343Z,9.40
2018-07-03T04:03:49.587Z,9.40
2018-07-03T04:06:18.022Z,9.40
2018-07-03T04:08:46.265Z,9.60
2018-07-03T04:11:14.480Z,9.60
2018-07-03T04:13:42.734Z,9.70
2018-07-03T04:16:10.973Z,9.80
2018-07-03T04:18:39.245Z,10.00
2018-07-03T04:21:08.309Z,10.10
2018-07-03T04:23:37.484Z,10.20
2018-07-03T04:26:05.744Z,10.20
2018-07-03T04:28:34.444Z,10.50
2018-07-03T04:31:03.773Z,10.60
2018-07-03T04:33:32.047Z,10.80
2018-07-03T04:36:00.444Z,11.10
2018-07-03T04:38:28.665Z,11.50
2018-07-03T04:40:56.898Z,12.10
2018-07-03T04:43:25.108Z,13.30
2018-07-03T04:45:53.481Z,14.10
2018-07-03T04:48:21.740Z,14.40
2018-07-03T04:50:49.974Z,14.20
2018-07-03T04:55:46.280Z,13.60
2018-07-03T04:58:14.518Z,13.40
2018-07-03T05:00:42.756Z,13.30
2018-07-03T05:03:10.989Z,13.20
2018-07-03T05:05:39.255Z,13.10
2018-07-03T05:08:07.491Z,13.00
2018-07-03T05:10:35.713Z,13.00
2018-07-03T05:13:04.049Z,13.00
2018-07-03T05:15:32.276Z,13.00
2018-07-03T05:18:00.549Z,13.10
2018-07-03T05:20:28.829Z,13.30
2018-07-03T05:22:57.064Z,13.40
2018-07-03T05:25:25.277Z,13.50
2018-07-03T05:27:53.540Z,13.70
2018-07-03T05:30:21.792Z,13.80
2018-07-03T05:32:50.033Z,13.90
2018-07-03T05:35:18.261Z,14.20
2018-07-03T05:37:46.509Z,14.30
2018-07-03T05:40:14.761Z,14.40
2018-07-03T05:45:11.044Z,14.70
2018-07-03T05:47:39.345Z,14.80
2018-07-03T05:50:07.573Z,14.90
2018-07-03T05:52:35.866Z,15.10
2018-07-03T05:55:04.112Z,15.20
2018-07-03T05:57:32.371Z,15.20
2018-07-03T06:00:00.616Z,15.30
2018-07-03T06:02:28.872Z,15.60
2018-07-03T06:04:57.508Z,15.70
2018-07-03T06:07:25.756Z,15.80
2018-07-03T06:09:53.965Z,16.00
2018-07-03T06:12:22.221Z,16.10
2018-07-03T06:14:50.449Z,16.20
2018-07-03T06:17:18.933Z,16.40
2018-07-03T06:19:47.025Z,16.50
2018-07-03T06:22:15.266Z,16.70
2018-07-03T06:24:43.512Z,16.80
2018-07-03T06:27:11.753Z,16.90
2018-07-03T06:29:39.993Z,17.00
2018-07-03T06:32:08.279Z,17.20
2018-07-03T06:34:36.551Z,17.50
2018-07-03T06:37:04.836Z,17.50
2018-07-03T06:39:33.084Z,17.60
2018-07-03T06:42:01.315Z,17.80
2018-07-03T06:44:29.562Z,17.90
2018-07-03T06:46:57.883Z,18.10
2018-07-03T06:49:26.136Z,18.30
2018-07-03T06:51:54.385Z,18.50
2018-07-03T06:54:22.644Z,18.60
2018-07-03T06:56:51.325Z,18.70
2018-07-03T06:59:20.613Z,19.10
2018-07-03T07:01:48.821Z,19.90
2018-07-03T07:04:17.080Z,20.10
2018-07-03T07:06:45.369Z,20.30
2018-07-03T07:09:13.710Z,20.40
2018-07-03T07:11:41.937Z,20.50
2018-07-03T07:14:10.224Z,20.60
2018-07-03T07:16:38.424Z,20.70
2018-07-03T07:19:06.665Z,20.90
2018-07-03T07:21:34.868Z,21.10
2018-07-03T07:24:03.092Z,21.40
2018-07-03T07:26:31.308Z,21.70
2018-07-03T07:31:27.579Z,22.70
2018-07-03T07:33:55.818Z,23.90
2018-07-03T07:36:24.024Z,25.60
2018-07-03T07:38:52.233Z,27.70
2018-07-03T07:41:20.499Z,31.00
2018-07-03T07:43:48.752Z,33.40
2018-07-03T07:46:16.984Z,35.60
2018-07-03T07:48:45.200Z,37.40
2018-07-03T07:51:13.501Z,37.80
2018-07-03T07:53:41.712Z,38.00
2018-07-03T07:56:09.960Z,39.10
2018-07-03T07:58:38.284Z,39.60
2018-07-03T08:01:06.620Z,40.90
2018-07-03T08:03:34.855Z,40.80
2018-07-03T08:06:03.135Z,39.70
2018-07-03T08:08:31.378Z,39.00
2018-07-03T08:10:59.637Z,38.80
2018-07-03T08:13:27.909Z,38.70
2018-07-03T08:15:56.132Z,38.40
2018-07-03T08:18:24.373Z,38.40
2018-07-03T08:20:52.608Z,37.90
2018-07-03T08:23:20.840Z,37.60
2018-07-03T08:25:49.085Z,37.80
2018-07-03T08:28:17.292Z,39.20
2018-07-03T08:30:45.553Z,39.70
2018-07-03T08:33:14.849Z,39.30
2018-07-03T08:35:43.224Z,40.10
2018-07-03T08:38:11.572Z,40.10
2018-07-03T08:40:40.464Z,39.60
2018-07-03T08:45:37.172Z,38.40
2018-07-03T08:48:06.100Z,38.40
2018-07-03T08:50:34.690Z,38.30
2018-07-03T08:53:02.933Z,37.90
2018-07-03T08:55:31.181Z,38.60
2018-07-03T08:57:59.408Z,37.80
2018-07-03T09:00:27.656Z,37.20
2018-07-03T09:02:55.904Z,36.70
2018-07-03T09:05:24.304Z,36.40
2018-07-03T09:07:52.540Z,37.10
2018-07-03T09:10:20.779Z,36.70
2018-07-03T09:12:49.007Z,36.10
2018-07-03T09:15:17.309Z,36.20
2018-07-03T09:17:45.565Z,35.20
2018-07-03T09:20:13.837Z,36.80
2018-07-03T09:22:42.100Z,38.70
2018-07-03T09:25:10.336Z,39.70
2018-07-03T09:27:38.589Z,39.40
2018-07-03T09:30:07.959Z,39.80
2018-07-03T09:32:36.429Z,40.80
2018-07-03T09:35:04.831Z,41.70
2018-07-03T09:37:33.160Z,41.30
2018-07-03T09:40:01.385Z,39.80
2018-07-03T09:42:29.700Z,38.10
2018-07-03T09:44:57.928Z,37.40
2018-07-03T09:47:26.806Z,38.30
2018-07-03T09:49:55.113Z,38.40
2018-07-03T09:52:23.386Z,37.30
2018-07-03T09:54:51.716Z,37.50
2018-07-03T09:57:19.949Z,37.10
2018-07-03T09:59:48.176Z,37.20
2018-07-03T10:02:16.529Z,36.30
2018-07-03T10:04:44.772Z,35.90
2018-07-03T10:07:13.056Z,36.20
2018-07-03T10:12:09.372Z,37.00
2018-07-03T10:14:37.593Z,37.00
2018-07-03T10:17:05.824Z,36.90
2018-07-03T10:19:34.071Z,35.80
2018-07-03T10:22:02.304Z,34.70
2018-07-03T10:24:30.532Z,34.70
2018-07-03T10:26:58.777Z,34.20
2018-07-03T10:29:27.016Z,32.90
2018-07-03T10:31:55.229Z,31.50
2018-07-03T10:34:23.461Z,30.30
2018-07-03T10:36:51.679Z,29.50
2018-07-03T10:39:19.915Z,29.20
2018-07-03T10:41:48.161Z,29.10
2018-07-03T10:44:16.392Z,29.20
2018-07-03T10:46:44.616Z,29.60
2018-07-03T10:49:12.868Z,29.80
2018-07-03T10:51:41.141Z,30.20
2018-07-03T10:54:09.608Z,30.20
2018-07-03T10:56:37.974Z,29.90
2018-07-03T10:59:06.286Z,29.80
2018-07-03T11:01:34.517Z,29.70
2018-07-03T11:04:02.802Z,29.80
2018-07-03T11:06:31.026Z,29.90
2018-07-03T11:08:59.252Z,29.80
2018-07-03T11:11:27.501Z,29.90
2018-07-03T11:13:55.916Z,29.80
2018-07-03T11:16:24.276Z,29.60
2018-07-03T11:18:52.508Z,29.30
2018-07-03T11:21:20.796Z,29.20
2018-07-03T11:23:49.064Z,29.10
2018-07-03T11:26:17.280Z,28.90
2018-07-03T11:28:45.552Z,28.70
2018-07-03T11:31:13.833Z,28.70
2018-07-03T11:33:42.088Z,28.80
2018-07-03T11:36:10.309Z,29.30
2018-07-03T11:38:38.539Z,29.70
2018-07-03T11:41:06.829Z,29.70
2018-07-03T11:43:35.052Z,29.90
2018-07-03T11:46:04.368Z,30.10
2018-07-03T11:48:32.582Z,30.10
2018-07-03T11:51:00.865Z,30.00
2018-07-03T11:53:29.136Z,29.80
2018-07-03T11:55:57.341Z,30.00
2018-07-03T11:58:25.572Z,30.30
2018-07-03T12:00:54.424Z,30.50
2018-07-03T12:03:22.641Z,30.80
2018-07-03T12:05:50.911Z,30.90
2018-07-03T12:08:19.135Z,30.70
2018-07-03T12:10:47.410Z,30.10
2018-07-03T12:13:15.628Z,30.00
2018-07-03T12:15:43.881Z,30.00
2018-07-03T12:18:17.308Z,29.90
2018-07-03T12:20:45.587Z,29.90
2018-07-03T12:23:13.858Z,30.00
2018-07-03T12:25:42.088Z,29.70
2018-07-03T12:28:10.316Z,29.50
2018-07-03T12:30:38.574Z,29.60
2018-07-03T12:33:06.847Z,29.80
2018-07-03T12:35:35.100Z,30.10
2018-07-03T12:40:31.325Z,30.00
2018-07-03T12:42:59.589Z,29.80
2018-07-03T12:45:27.844Z,29.50
2018-07-03T12:47:56.068Z,29.40
2018-07-03T12:50:24.333Z,29.40
2018-07-03T12:52:52.576Z,29.50
2018-07-03T12:55:21.008Z,29.80
2018-07-03T12:57:49.224Z,29.90
2018-07-03T13:00:17.483Z,30.00
2018-07-03T13:02:45.709Z,30.00
2018-07-03T13:07:42.016Z,30.00
2018-07-03T13:10:10.232Z,30.00
2018-07-03T13:15:06.465Z,30.00
2018-07-03T13:17:34.696Z,29.90
2018-07-03T13:20:03.001Z,29.80
2018-07-03T13:22:31.445Z,29.70
2018-07-03T13:24:59.773Z,29.50
2018-07-03T13:27:28.070Z,29.40
2018-07-03T13:29:56.309Z,29.30
2018-07-03T13:32:24.556Z,29.40
2018-07-03T13:34:52.844Z,29.50
2018-07-03T13:37:21.069Z,29.50
2018-07-03T13:39:49.297Z,29.40
2018-07-03T13:42:17.556Z,29.10
2018-07-03T13:44:45.840Z,28.80
2018-07-03T13:47:14.170Z,28.90
2018-07-03T13:49:42.436Z,28.90
2018-07-03T13:52:10.732Z,29.00
2018-07-03T13:54:39.071Z,29.10
2018-07-03T13:57:07.305Z,29.10
2018-07-03T13:59:35.568Z,29.10
2018-07-03T14:02:03.832Z,29.00
2018-07-03T14:04:32.155Z,28.70
2018-07-03T14:07:00.515Z,28.60
2018-07-03T14:09:28.784Z,28.20
2018-07-03T14:11:57.060Z,27.80
2018-07-03T14:14:25.335Z,27.80
2018-07-03T14:16:53.589Z,28.10
2018-07-03T14:19:21.856Z,28.40
2018-07-03T14:21:50.102Z,28.60
2018-07-03T14:24:20.411Z,28.60
2018-07-03T14:26:48.644Z,28.70
2018-07-03T14:29:16.937Z,28.80
2018-07-03T14:31:45.153Z,28.90
2018-07-03T14:36:42.628Z,29.00
2018-07-03T14:39:12.810Z,28.70
2018-07-03T14:41:41.260Z,28.50
2018-07-03T14:44:09.576Z,28.50
2018-07-03T14:46:37.856Z,28.60
2018-07-03T14:49:06.111Z,28.60
2018-07-03T14:51:34.346Z,28.60
2018-07-03T14:54:02.625Z,28.80
2018-07-03T14:56:31.343Z,28.80
2018-07-03T14:58:59.636Z,28.70
2018-07-03T15:01:27.941Z,28.70
2018-07-03T15:03:56.320Z,28.90
2018-07-03T15:06:24.604Z,29.10
2018-07-03T15:08:52.854Z,29.20
2018-07-03T15:11:21.068Z,29.40
2018-07-03T15:13:49.315Z,29.40
2018-07-03T15:16:17.585Z,29.20
2018-07-03T15:18:51.022Z,29.00
2018-07-03T15:21:19.340Z,28.80
2018-07-03T15:23:47.598Z,28.70
2018-07-03T15:26:16.071Z,28.60
2018-07-03T15:28:44.321Z,28.70
2018-07-03T15:31:12.533Z,28.60
2018-07-03T15:33:40.824Z,28.60
2018-07-03T15:36:09.045Z,28.60
2018-07-03T15:38:37.299Z,28.60
2018-07-03T15:41:05.600Z,28.70
2018-07-03T15:43:34.845Z,28.60
2018-07-03T15:46:03.120Z,28.70
2018-07-03T15:48:31.380Z,28.60
2018-07-03T15:50:59.642Z,28.70
2018-07-03T15:53:27.900Z,28.70
2018-07-03T15:55:57.149Z,28.60
2018-07-03T15:58:26.512Z,28.40
2018-07-03T16:00:54.784Z,28.30
2018-07-03T16:05:38.636Z,28.30
2018-07-03T16:09:14.982Z,28.40
2018-07-03T16:11:43.331Z,28.30
2018-07-03T16:14:12.513Z,28.20
2018-07-03T16:16:41.509Z,28.10
2018-07-03T16:19:15.278Z,28.10
2018-07-03T16:21:43.528Z,28.10
2018-07-03T16:24:11.773Z,28.00
2018-07-03T16:26:40.126Z,28.00
2018-07-03T16:29:10.869Z,28.00
2018-07-03T16:31:39.156Z,28.00
2018-07-03T16:36:35.771Z,27.90
2018-07-03T16:39:06.996Z,28.00
2018-07-03T16:41:35.319Z,27.90
2018-07-03T16:44:03.556Z,27.80
2018-07-03T16:46:31.772Z,27.80
2018-07-03T16:48:59.981Z,27.70
2018-07-03T16:51:28.336Z,27.70
2018-07-03T16:53:56.573Z,27.60
2018-07-03T16:56:25.863Z,27.50
2018-07-03T16:58:54.259Z,27.40
2018-07-03T17:01:22.515Z,27.30
2018-07-03T17:03:50.832Z,27.20
2018-07-03T17:08:47.132Z,27.00
2018-07-03T17:11:15.349Z,26.90
2018-07-03T17:16:11.621Z,26.70
2018-07-03T17:18:44.096Z,26.50
2018-07-03T17:21:12.342Z,26.40
2018-07-03T17:23:41.680Z,26.20
2018-07-03T17:26:09.921Z,26.10
2018-07-03T17:28:38.148Z,26.10
2018-07-03T17:31:06.501Z,26.10
2018-07-03T17:33:34.745Z,26.00
2018-07-03T17:36:02.988Z,26.00
2018-07-03T17:38:31.220Z,25.70
2018-07-03T17:41:10.898Z,25.40
2018-07-03T17:44:20.808Z,25.10
2018-07-03T17:46:49.033Z,24.70
2018-07-03T17:49:17.276Z,24.40
2018-07-03T17:51:45.493Z,24.20
2018-07-03T17:54:14.257Z,24.00
2018-07-03T17:56:42.488Z,23.90
2018-07-03T17:59:10.799Z,23.80
2018-07-03T18:01:40.128Z,23.70
2018-07-03T18:04:08.548Z,23.70
2018-07-03T18:06:37.800Z,23.60
2018-07-03T18:09:10.056Z,23.50
2018-07-03T18:11:38.341Z,23.50
2018-07-03T18:14:09.116Z,23.50
2018-07-03T18:16:37.385Z,23.50
2018-07-03T18:19:11.183Z,23.40
2018-07-03T18:21:39.656Z,23.40
2018-07-03T18:29:03.975Z,23.20
2018-07-03T18:31:32.380Z,23.20
2018-07-03T18:34:00.464Z,23.20
2018-07-03T18:36:28.685Z,23.20
2018-07-03T18:38:58.193Z,23.20
2018-07-03T18:41:26.473Z,23.10
2018-07-03T18:43:54.703Z,23.10
2018-07-03T18:46:23.248Z,23.10
2018-07-03T18:48:51.435Z,23.10
2018-07-03T18:51:20.008Z,23.10
2018-07-03T18:53:48.365Z,23.00
2018-07-03T18:56:16.671Z,22.70
2018-07-03T18:58:44.951Z,22.60
2018-07-03T19:01:13.253Z,22.50
2018-07-03T19:03:41.548Z,22.20
2018-07-03T19:06:09.796Z,22.10
2018-07-03T19:08:38.022Z,21.90
2018-07-03T19:11:06.457Z,21.70
2018-07-03T19:13:35.997Z,21.50
2018-07-03T19:16:04.235Z,21.30
2018-07-03T19:18:32.467Z,21.20
2018-07-03T19:21:00.848Z,21.00
2018-07-03T19:23:29.083Z,20.90
2018-07-03T19:25:57.381Z,20.70
2018-07-03T19:28:25.691Z,20.50
2018-07-03T19:30:53.921Z,20.50
2018-07-03T19:35:50.460Z,20.10
2018-07-03T19:38:18.692Z,20.00
2018-07-03T19:40:46.957Z,19.90
2018-07-03T19:43:18.339Z,19.80
2018-07-03T19:45:46.568Z,19.70
2018-07-03T19:48:15.647Z,19.60
2018-07-03T19:53:11.948Z,19.30
2018-07-03T19:55:40.265Z,19.20
2018-07-03T19:58:08.513Z,19.10
2018-07-03T20:00:37.196Z,19.00
2018-07-03T20:05:34.197Z,18.80
2018-07-03T20:08:02.984Z,18.60
2018-07-03T20:10:31.261Z,18.60
2018-07-03T20:12:59.655Z,18.50
2018-07-03T20:15:27.852Z,18.40
2018-07-03T20:17:56.196Z,18.30
2018-07-03T20:20:25.138Z,18.20
2018-07-03T20:22:53.411Z,18.20
2018-07-03T20:25:21.675Z,18.00
2018-07-03T20:27:49.930Z,18.00
2018-07-03T20:30:18.206Z,17.90
2018-07-03T20:32:46.645Z,17.90
2018-07-03T20:35:14.896Z,17.80
2018-07-03T20:37:57.495Z,17.80
2018-07-03T20:40:26.132Z,17.70
2018-07-03T20:42:57.557Z,17.70
2018-07-03T20:45:28.161Z,17.60
2018-07-03T20:47:56.403Z,17.50
2018-07-03T20:50:24.641Z,17.50
2018-07-03T20:52:52.929Z,17.40
2018-07-03T20:57:49.185Z,17.20
2018-07-03T21:00:17.485Z,17.10
2018-07-03T21:02:45.736Z,17.10
2018-07-03T21:05:14.049Z,17.00
2018-07-03T21:07:42.320Z,16.90
2018-07-03T21:10:10.600Z,16.90
2018-07-03T21:12:38.857Z,16.80
2018-07-03T21:15:07.119Z,16.80
2018-07-03T21:17:35.367Z,16.70
2018-07-03T21:22:31.601Z,16.70
2018-07-03T21:25:00.730Z,16.60
2018-07-03T21:27:29.012Z,16.50
2018-07-03T21:29:57.265Z,16.60
2018-07-03T21:32:25.504Z,16.60
2018-07-03T21:34:54.362Z,16.60
2018-07-03T21:37:22.606Z,16.60
2018-07-03T21:39:50.932Z,16.50
2018-07-03T21:42:19.211Z,16.40
2018-07-03T21:44:47.458Z,16.40
2018-07-03T21:47:15.872Z,16.30
2018-07-03T21:49:44.153Z,16.30
2018-07-03T21:52:12.429Z,16.20
2018-07-03T21:54:40.682Z,16.10
2018-07-03T21:57:08.960Z,16.00
2018-07-03T21:59:37.308Z,16.00
2018-07-03T22:02:05.579Z,16.00
2018-07-03T22:04:34.013Z,16.00
2018-07-03T22:07:02.284Z,16.00
2018-07-03T22:09:30.613Z,15.90
2018-07-03T22:11:58.967Z,15.90
2018-07-03T22:14:27.116Z,15.80
2018-07-03T22:16:55.335Z,15.80
2018-07-03T22:19:23.556Z,15.80
2018-07-03T22:21:51.815Z,15.70
2018-07-03T22:24:20.279Z,15.60
2018-07-03T22:26:48.588Z,15.60
2018-07-03T22:29:16.848Z,15.60
2018-07-03T22:31:45.088Z,15.50
2018-07-03T22:34:13.320Z,15.50
2018-07-03T22:36:41.554Z,15.50
2018-07-03T22:39:10.161Z,15.50
2018-07-03T22:41:38.638Z,15.50
2018-07-03T22:44:06.874Z,15.50
2018-07-03T22:46:35.160Z,15.40
2018-07-03T22:49:07.590Z,15.30
2018-07-03T22:54:03.816Z,15.20
2018-07-03T22:56:32.077Z,15.10
2018-07-03T22:59:00.466Z,15.00
2018-07-03T23:01:28.784Z,15.00
2018-07-03T23:03:57.033Z,14.90
2018-07-03T23:06:25.360Z,14.90
2018-07-03T23:08:54.252Z,14.80
2018-07-03T23:11:22.474Z,14.80
2018-07-03T23:13:51.581Z,14.70
2018-07-03T23:16:19.810Z,14.70
2018-07-03T23:18:48.036Z,14.70
2018-07-03T23:21:16.295Z,14.70
2018-07-03T23:23:44.571Z,14.60
2018-07-03T23:26:12.821Z,14.50
2018-07-03T23:28:41.041Z,14.50
2018-07-03T23:31:09.300Z,14.40
2018-07-03T23:33:37.533Z,14.40
2018-07-03T23:36:05.798Z,14.40
2018-07-03T23:38:34.041Z,14.40
2018-07-03T23:41:02.285Z,14.40
2018-07-03T23:43:30.520Z,14.30
2018-07-03T23:45:59.808Z,14.30
2018-07-03T23:48:39.584Z,14.30
2018-07-03T23:51:20.061Z,14.20
2018-07-03T23:53:59.696Z,14.10
2018-07-03T23:59:13.420Z,14.00
